Terminal Aerodrome Forecast
Issued by NWS

Home | Current Version | Previous Version | Text Only | Print | Product List | Glossary On
Versions: 1 2 3 4 5 6 7 8 9 10 11 12 13 14 15 16 17 18 19 20
531
FTUS44 KLZK 191416 AAA
TAFLLQ
TAF AMD
KLLQ 191416Z 1914/2012 VRB02KT 6SM BR OVC002
     FM191600 VRB05KT 4SM BR OVC007
     FM192200 21005KT P6SM OVC015
     FM200300 VRB04KT 4SM BR BKN010=

USA.gov is the U.S. government's official web portal to all federal, state and local government web resources and services.